IK5NLA Vaiano IT current weather conditions

sailwx.info

Wind from 300 at 2 knots gusting 2

Air temperature 18.9° C
Dewpoint 17.2° C

Last reported at 2014-Sep-22 15:56 UTC.
Time now 2014-Sep-22 16:18 UTC

Location: N 43°58' E 011°06'.
View on Google Maps.

See reports from other nearby stations

  
Tides and Currents Weather Stations Pressure Air Temp Water Temp Dewpoint Dewpoint Depression Visibility Wind Speed Wind Dir Waves Ship Positions
date/time (UTC)wind fromknots sea level pressurealtimeterstation pressurevisibilityair tempwater tempwave heightnotes
2014-Sep-22 15:56 300 2 gusting 2 18.9
2014-Sep-22 15:46 355 1 gusting 2 18.9
2014-Sep-22 15:36 022 2 gusting 3 18.3
2014-Sep-22 15:26 048 7 gusting 8 19.4
2014-Sep-22 15:16 360 0 gusting 1 20.0
2014-Sep-22 15:06 164 2 gusting 8 20.0
2014-Sep-22 14:56 206 2 gusting 2 20.0
2014-Sep-22 14:46 226 2 gusting 2 19.4
2014-Sep-22 14:36 269 2 gusting 5 20.0
2014-Sep-22 14:26 241 8 gusting 8 20.6
2014-Sep-22 14:16 237 9 gusting 9 21.1
2014-Sep-22 14:06 190 10 gusting 10 20.6
2014-Sep-22 13:56 196 4 gusting 4 21.1
2014-Sep-22 13:46 257 3 gusting 4 21.1
2014-Sep-22 13:36 208 5 gusting 7 20.6
2014-Sep-22 13:26 286 2 gusting 3 20.6
2014-Sep-22 13:16 259 6 gusting 6 20.6
2014-Sep-22 13:06 280 2 gusting 3 20.6
2014-Sep-22 12:56 267 8 gusting 9 20.6
2014-Sep-22 12:46 245 6 gusting 8 20.6
2014-Sep-22 12:36 257 2 gusting 4 20.6
2014-Sep-22 12:26 291 5 gusting 5 20.6
2014-Sep-22 12:16 252 3 gusting 6 20.6
2014-Sep-22 12:06 267 4 gusting 4 20.0
2014-Sep-22 11:56 222 7 gusting 8 20.6
2014-Sep-22 11:46 206 7 gusting 7 20.6
2014-Sep-22 11:36 227 3 gusting 8 20.6
2014-Sep-22 11:26 242 6 gusting 7 20.0
2014-Sep-22 11:16 267 4 gusting 6 20.0
2014-Sep-22 11:06 196 5 gusting 5 20.0
2014-Sep-22 10:56 182 6 gusting 7 19.4
2014-Sep-22 10:46 239 7 gusting 7 19.4
2014-Sep-22 10:36 187 2 gusting 3 19.4
2014-Sep-22 10:26 207 3 gusting 4 19.4
2014-Sep-22 10:16 178 3 gusting 5 19.4
2014-Sep-22 10:06 228 3 gusting 4 19.4
2014-Sep-22 09:56 240 2 gusting 4 19.4
2014-Sep-22 09:46 252 2 gusting 3 19.4
2014-Sep-22 09:36 275 4 gusting 5 20.0
2014-Sep-22 09:26 217 7 gusting 8 20.0
2014-Sep-22 09:16 200 2 gusting 2 19.4
2014-Sep-22 09:06 219 6 gusting 6 19.4
2014-Sep-22 08:56 194 1 gusting 3 19.4
2014-Sep-22 08:46 207 2 gusting 5 18.9
2014-Sep-22 08:36 159 2 gusting 5 18.9
2014-Sep-22 08:26 197 4 gusting 7 18.3
2014-Sep-22 08:16 206 6 gusting 7 18.3
2014-Sep-22 08:06 191 3 gusting 3 17.8
2014-Sep-22 07:56 192 6 gusting 7 17.8
2014-Sep-22 07:46 256 2 gusting 2 17.2
2014-Sep-22 07:36 191 2 gusting 2 17.2
2014-Sep-22 07:26 218 2 gusting 2 17.2
2014-Sep-22 07:16 251 4 gusting 4 17.2
2014-Sep-22 07:06 239 2 gusting 2 17.2
2014-Sep-22 06:56 288 2 gusting 2 17.8
2014-Sep-22 06:46 193 2 gusting 2 17.8
2014-Sep-22 06:36 194 4 gusting 6 17.8
2014-Sep-22 06:26 186 2 gusting 2 17.2
2014-Sep-22 06:16 229 2 gusting 2 16.7
2014-Sep-22 06:06 283 0 gusting 0 16.7
2014-Sep-22 05:56 107 0 gusting 1 16.7
2014-Sep-22 05:46 131 1 gusting 2 17.2
2014-Sep-22 05:36 202 0 gusting 1 17.8
2014-Sep-22 05:26 275 5 gusting 5 18.3
2014-Sep-22 05:16 246 8 gusting 8 17.8
2014-Sep-22 05:06 212 2 gusting 2 17.8
2014-Sep-22 04:56 209 3 gusting 3 17.8
2014-Sep-22 04:46 234 4 gusting 4 17.8
2014-Sep-22 04:36 257 2 gusting 3 17.2
2014-Sep-22 04:26 248 3 gusting 3 16.7
2014-Sep-22 04:16 213 1 gusting 1 17.2
2014-Sep-22 04:06 279 3 gusting 3 16.7
2014-Sep-22 03:56 094 16.7
2014-Sep-22 03:46 144 17.2
2014-Sep-22 03:36 203 2 gusting 6 17.2
2014-Sep-22 03:26 222 4 gusting 8 17.8
2014-Sep-22 03:16 279 3 gusting 6 17.2
2014-Sep-22 03:06 288 5 gusting 7 17.2
2014-Sep-22 02:56 283 6 gusting 7 17.2
2014-Sep-22 02:46 279 1 gusting 1 17.2
2014-Sep-22 02:36 271 4 gusting 5 16.7
2014-Sep-22 02:26 275 8 gusting 8 16.7
2014-Sep-22 02:16 272 5 gusting 7 17.2
2014-Sep-22 02:06 278 8 gusting 10 17.2
2014-Sep-22 01:56 250 1 gusting 2 17.8
2014-Sep-22 01:46 126 2 gusting 2 17.8
2014-Sep-22 01:36 294 2 gusting 2 17.8
2014-Sep-22 01:26 272 2 gusting 4 17.8
2014-Sep-22 01:16 105 1 gusting 2 17.8
2014-Sep-22 01:06 121 2 gusting 2 18.9
2014-Sep-22 00:56 249 0 gusting 1 18.9
2014-Sep-22 00:46 273 4 gusting 4 18.9
2014-Sep-22 00:36 276 3 gusting 3 18.9
2014-Sep-22 00:26 262 2 gusting 7 18.9
2014-Sep-22 00:16 252 4 gusting 6 18.9
2014-Sep-22 00:06 280 6 gusting 7 18.9
2014-Sep-21 23:56 221 8 gusting 8 18.9
2014-Sep-21 23:46 286 5 gusting 8 18.9
2014-Sep-21 23:36 283 2 gusting 2 18.9
2014-Sep-21 23:26 277 2 gusting 7 18.9
2014-Sep-21 23:16 263 2 gusting 2 18.9
2014-Sep-21 23:06 279 4 gusting 5 18.9
2014-Sep-21 22:56 196 3 gusting 10 18.9
2014-Sep-21 22:46 256 8 gusting 10 18.3
2014-Sep-21 22:36 293 8 gusting 14 18.3
2014-Sep-21 22:26 257 9 gusting 19 18.3
2014-Sep-21 22:16 252 4 gusting 12 18.3
2014-Sep-21 22:06 308 8 gusting 13 18.3
2014-Sep-21 21:56 167 2 gusting 2 18.3
2014-Sep-21 21:46 296 13 gusting 13 18.3
2014-Sep-21 21:36 168 4 gusting 7 18.3
2014-Sep-21 21:26 215 10 gusting 18 18.3
2014-Sep-21 21:16 263 11 gusting 12 18.3
2014-Sep-21 21:06 236 10 gusting 10 18.3
2014-Sep-21 20:56 254 1 gusting 2 18.3
2014-Sep-21 20:46 220 6 gusting 8 18.3
2014-Sep-21 20:36 203 8 gusting 10 18.3
2014-Sep-21 20:26 244 11 gusting 11 18.3
2014-Sep-21 20:16 198 7 gusting 8 18.3
2014-Sep-21 20:06 169 5 gusting 10 18.3
2014-Sep-21 19:56 213 6 gusting 8 18.3
2014-Sep-21 19:46 190 5 gusting 6 18.9
2014-Sep-21 19:36 174 4 gusting 4 18.9
2014-Sep-21 19:26 178 0 gusting 2 18.9
2014-Sep-21 19:16 239 0 gusting 1 18.9
2014-Sep-21 19:06 230 1 gusting 1 18.9
2014-Sep-21 18:56 184 8 gusting 12 18.9
2014-Sep-21 18:46 201 6 gusting 6 18.9
2014-Sep-21 18:36 192 4 gusting 6 18.9
2014-Sep-21 18:26 165 3 gusting 6 19.4
2014-Sep-21 18:16 195 13 gusting 13 19.4
2014-Sep-21 18:06 245 3 gusting 4 19.4
2014-Sep-21 17:56 211 8 gusting 8 19.4
2014-Sep-21 17:46 214 2 gusting 3 19.4
2014-Sep-21 17:36 236 7 gusting 9 19.4
2014-Sep-21 17:26 208 2 gusting 5 20.0
2014-Sep-21 17:16 208 3 gusting 8 20.0
2014-Sep-21 17:06 234 4 gusting 8 20.0
2014-Sep-21 16:56 229 8 gusting 10 20.0
2014-Sep-21 16:46 250 7 gusting 7 20.0
2014-Sep-21 16:36 229 8 gusting 9 20.6
2014-Sep-21 16:26 198 7 gusting 7 20.6
2014-Sep-21 16:16 188 3 gusting 5 20.6
2014-Sep-21 16:06 216 2 gusting 4 20.6
2014-Sep-21 15:56 230 6 gusting 14 20.6
2014-Sep-21 15:46 225 10 gusting 13 20.6
2014-Sep-21 15:36 263 6 gusting 6 20.6
2014-Sep-21 15:26 223 4 gusting 5 20.6
2014-Sep-21 15:16 279 11 gusting 11 20.6
2014-Sep-21 15:06 307 12 gusting 14 21.1
2014-Sep-21 14:56 241 5 gusting 8 21.1
2014-Sep-21 14:46 226 9 gusting 11 21.1
2014-Sep-21 14:36 242 7 gusting 9 21.1
2014-Sep-21 14:26 212 2 gusting 7 21.1
2014-Sep-21 14:16 250 2 gusting 8 21.1
2014-Sep-21 14:06 248 5 gusting 6 21.1
2014-Sep-21 13:56 206 7 gusting 7 21.1
2014-Sep-21 13:46 261 2 gusting 2 21.1
2014-Sep-21 13:36 215 2 gusting 8 21.1
2014-Sep-21 13:26 250 9 gusting 13 21.1
2014-Sep-21 13:16 173 7 gusting 8 21.1
2014-Sep-21 13:06 178 4 gusting 13 21.1
2014-Sep-21 12:56 265 9 gusting 13 21.7
2014-Sep-21 12:46 214 9 gusting 9 21.7
2014-Sep-21 12:36 223 8 gusting 12 21.1
2014-Sep-21 12:26 261 8 gusting 8 21.1
2014-Sep-21 12:16 245 8 gusting 8 21.1
2014-Sep-21 12:06 219 10 gusting 10 21.1
2014-Sep-21 11:56 211 8 gusting 14 21.1
2014-Sep-21 11:46 212 3 gusting 12 20.6
2014-Sep-21 11:36 184 11 gusting 11 20.6
2014-Sep-21 11:26 204 10 gusting 12 20.0
2014-Sep-21 11:16 219 10 gusting 10 20.0
2014-Sep-21 11:06 194 2 gusting 5 20.0
2014-Sep-21 10:56 251 4 gusting 7 20.0
2014-Sep-21 10:46 288 6 gusting 10 20.0
2014-Sep-21 10:36 205 2 gusting 3 19.4
2014-Sep-21 10:26 171 2 gusting 2 19.4
2014-Sep-21 10:16 186 1 gusting 5 19.4
2014-Sep-21 10:06 186 1 gusting 4 18.9
2014-Sep-21 09:56 192 3 gusting 4 18.9
2014-Sep-21 09:46 237 2 gusting 2 18.9
2014-Sep-21 09:36 217 4 gusting 4 18.3
2014-Sep-21 09:26 276 2 gusting 3 18.3
2014-Sep-21 09:16 250 1 gusting 2 18.3
2014-Sep-21 09:06 231 18.3
2014-Sep-21 08:56 185 2 gusting 2 18.3
2014-Sep-21 08:46 284 1 gusting 2 17.8
2014-Sep-21 08:36 191 3 gusting 3 17.8
2014-Sep-21 08:26 252 4 gusting 6 17.8
2014-Sep-21 08:16 230 2 gusting 4 17.8
2014-Sep-21 08:06 215 2 gusting 2 17.8
2014-Sep-21 07:56 210 17.8
2014-Sep-21 07:46 234 2 gusting 2 17.8
2014-Sep-21 07:36 207 2 gusting 2 17.8
2014-Sep-21 07:26 213 2 gusting 3 17.8
2014-Sep-21 07:16 206 4 gusting 4 17.8
2014-Sep-21 07:06 225 5 gusting 7 17.8
2014-Sep-21 06:56 227 4 gusting 8 17.8
2014-Sep-21 06:46 264 7 gusting 8 17.8
2014-Sep-21 06:36 222 7 gusting 7 17.8
2014-Sep-21 06:26 202 7 gusting 9 17.8
2014-Sep-21 06:16 208 5 gusting 8 17.8
2014-Sep-21 06:06 211 6 gusting 8 17.8
2014-Sep-21 05:56 258 4 gusting 5 17.8
2014-Sep-21 05:46 250 3 gusting 3 17.8
2014-Sep-21 05:36 187 2 gusting 2 17.8
2014-Sep-21 05:26 227 5 gusting 7 17.8
2014-Sep-21 05:16 196 8 gusting 8 17.8
2014-Sep-21 05:06 255 2 gusting 2 17.8
2014-Sep-21 04:56 213 2 gusting 2 17.8
2014-Sep-21 04:46 244 2 gusting 2 17.8
2014-Sep-21 04:36 248 3 gusting 4 17.8
2014-Sep-21 04:26 241 2 gusting 4 17.8
2014-Sep-21 04:16 234 2 gusting 4 17.8
2014-Sep-21 04:06 269 3 gusting 4 17.8
2014-Sep-21 03:56 211 2 gusting 2 17.8
2014-Sep-21 03:46 254 3 gusting 3 18.3
2014-Sep-21 03:36 196 2 gusting 3 18.3
2014-Sep-21 03:26 221 2 gusting 2 18.3
2014-Sep-21 03:16 236 2 gusting 2 18.3
2014-Sep-21 03:06 178 4 gusting 6 18.3
2014-Sep-21 02:56 167 2 gusting 2 18.3
2014-Sep-21 02:46 207 2 gusting 2 18.3
2014-Sep-21 02:36 200 2 gusting 3 18.3
2014-Sep-21 02:26 258 3 gusting 3 18.3
2014-Sep-21 02:16 256 2 gusting 3 18.3
2014-Sep-21 02:06 267 2 gusting 4 18.3
2014-Sep-21 01:56 240 2 gusting 3 18.3
2014-Sep-21 01:46 250 8 gusting 9 18.3
2014-Sep-21 01:36 267 3 gusting 4 18.3
2014-Sep-21 01:26 226 3 gusting 4 18.3
2014-Sep-21 01:16 296 2 gusting 2 18.3
2014-Sep-21 01:06 286 3 gusting 6 18.3
2014-Sep-21 00:56 196 3 gusting 4 18.3
2014-Sep-21 00:46 292 2 gusting 4 18.3
2014-Sep-21 00:36 257 6 gusting 8 18.3
2014-Sep-21 00:26 233 6 gusting 6 18.3
2014-Sep-21 00:16 225 2 gusting 7 18.3
2014-Sep-21 00:06 234 2 gusting 3 18.3
2014-Sep-20 23:56 232 18.9
2014-Sep-20 23:46 211 2 gusting 2 18.9
2014-Sep-20 23:36 249 2 gusting 2 18.9
2014-Sep-20 23:26 257 2 gusting 2 18.9
2014-Sep-20 23:16 256 3 gusting 3 18.9
2014-Sep-20 23:06 230 1 gusting 2 19.4
2014-Sep-20 22:56 235 1 gusting 1 19.4
2014-Sep-20 22:46 198 0 gusting 1 19.4
2014-Sep-20 22:36 215 7 gusting 7 19.4
2014-Sep-20 22:26 188 2 gusting 2 20.0
2014-Sep-20 22:16 360 1 gusting 1 20.0
2014-Sep-20 22:06 236 2 gusting 4 20.0
2014-Sep-20 21:56 267 2 gusting 3 20.0
2014-Sep-20 21:46 290 4 gusting 4 20.0
2014-Sep-20 21:36 340 2 gusting 2 20.0
2014-Sep-20 21:26 227 8 gusting 8 20.0
2014-Sep-20 21:16 253 3 gusting 6 20.0
2014-Sep-20 21:06 281 9 gusting 9 20.0
2014-Sep-20 20:56 283 6 gusting 9 20.0
2014-Sep-20 20:46 276 1 gusting 2 20.6
2014-Sep-20 20:36 011 2 gusting 3 20.6
2014-Sep-20 20:26 252 1 gusting 2 21.1
2014-Sep-20 20:16 169 1 gusting 2 21.1
2014-Sep-20 20:06 360 2 gusting 3 21.7
2014-Sep-20 19:56 218 9 gusting 10 21.7
2014-Sep-20 19:46 290 3 gusting 10 21.7
2014-Sep-20 19:36 167 1 gusting 2 21.7
2014-Sep-20 19:26 160 1 gusting 1 21.7
2014-Sep-20 19:16 238 2 gusting 4 21.7
2014-Sep-20 19:06 276 14 gusting 14 21.7
2014-Sep-20 18:56 286 2 gusting 2 21.7
2014-Sep-20 18:46 259 1 gusting 1 21.1
2014-Sep-20 18:36 090 1 gusting 2 21.1
2014-Sep-20 18:26 123 3 gusting 4 21.1
2014-Sep-20 18:16 094 1 gusting 2 21.1
2014-Sep-20 18:06 022 2 gusting 4 21.1
2014-Sep-20 17:56 052 2 gusting 2 21.7
2014-Sep-20 17:46 329 2 gusting 2 21.7
2014-Sep-20 17:36 311 0 gusting 1 21.1
2014-Sep-20 17:26 091 2 gusting 2 21.7
2014-Sep-20 17:16 117 2 gusting 2 21.7
2014-Sep-20 17:06 017 1 gusting 1 21.7
2014-Sep-20 16:56 142 0 gusting 0 21.7
2014-Sep-20 16:46 005 21.7
2014-Sep-20 16:36 069 0 gusting 0 22.2
2014-Sep-20 16:26 088 2 gusting 2 22.2
2014-Sep-20 16:16 044 1 gusting 1 22.2
2014-Sep-20 16:06 068 22.8